aviador You're here:

KPHP Decoded Metar

PHILIP in SD, USA
Report Time2017-08-24 00:55:00
UTC Time2017-08-24 01:12:51
Flight Rules vfr VFR
Wind050° at 12 kt
W.Decomp.*RWY 05: 11.8 kt HW 2.3 kt LCW
RWY 12: 1.9 kt HW 11.9 kt LCW
W.Rank050° ranks 27
Current wind is above 050° avg. (8.2)
Visibility9999 m
Phenomena:N/A
Clouds:N/A
Expected CloudBase > 6,000 ft AGL from Temp-Dew spread
CeilingNone
Temp29°C (ISA +18)
Dew Point14°C (40% RH)
Heat Index28.6°C
AAT25.9°C
QNH1012 hPa
Density Alt4,557 ft
Elevation2,205 ft
Report Wrong Elevation
Raw Report
METAR KPHP 240055Z AUTO 05012KT 10SM CLR 29/14 A2989 RMK AO2 SLP103
T02940139=

Extra information for KPHP:More info

Metar Taf Metar & Taf Last 4 Metars F.Rules Stats Wind Profile Meteogram Temp Stats Airport Information Weather charts Add Link Nearby VenuesMetar ALERT Operation Metar Decoded Social comments

AIRNAV info for KPHP